Jackson County Reynolds Field
KJXN : now visible

Airfield :











YOU CAN JOIN US ON...

 
LOGIN :

Register | Disclaimer

   EN    FR    IT 

 









Legend :    VFR   Marginal VFR   IFR   Intensive IFR   Very Intensive IFR
Visi :
Ceiling :
>= 8 km
>= 3000ft
5 to 8 km
1000 to 3000 ft
1500m to 5 km
500 to 1000 ft
800 to 1500m
200 to 500 ft
< 800m
< 200 ft
Symbols :   Thunderstorms  Fog  Heavy snow  Heavy precipitations  Wind > 20 kt







- Airport Elevation : 1001 ft


KJXN - Jackson County Reynolds Field

CURRENT METAR :
  • 201556Z 24003KT 10SM CLR 26/15 A3017 RMK AO2 SLP211 T02610150

EXPIRED METARs :
  • 201456Z 00000KT 10SM CLR 26/18 A3017 RMK AO2 SLP211 T02560178 51005
  • 201356Z 21003KT 10SM CLR 23/18 A3017 RMK AO2 SLP211 T02280178

TAF KJXN
Valid from the 20 at 12:00 until the 21 at 12:00 UTC


201129Z 2012/2112 00000KT 6SM BR SKC
FM201230 17004KT P6SM SKC
FM201900 20004KT P6SM SCT120
No reported NOTAMs for that airfield.



MET'MAP, your aeronautical weather chart ! - Copyright ORBIFLY December 2007 - Disclaimer

ORBIFLY MET'MAP TEAM :

Programming & Development : Alexandra Zaïnal
Concept & Development : Baudouin d'Aumeries
Co-Development & Prog : Marc-Olivier Méhu
Technical & hardware support : Manuel Goepfert

Contact : metmap@orbifly.com




SOURCES & CREDITS :

   NOAA       Earth
Advisory